Time;durP1;ratioP1;P1;durP2;ratioP2;P2;SDS_P1;SDS_P2;PMS_P1;PMS_P2;Temp;Humidity;BMP_temperature;BMP_pressure;BME280_temperature;BME280_humidity;BME280_pressure;Samples;Min_cycle;Max_cycle;Signal;HPM_P1;HPM_P2
2022/05/24 00:02:04;;;;;;;23.95;19.92;;;;;;;15.19;80.45;99901.38;3564103;40;20060;-62
2022/05/24 00:04:31;;;;;;;21.85;18.52;;;;;;;15.04;80.14;99878.47;3562044;40;20471;-61
2022/05/24 00:06:58;;;;;;;23.90;18.45;;;;;;;15.16;80.02;99901.66;3562812;40;20068;-61
2022/05/24 00:09:25;;;;;;;21.88;17.90;;;;;;;15.07;80.11;99897.97;3561712;40;20056;-61
2022/05/24 00:11:51;;;;;;;22.58;17.05;;;;;;;14.91;79.82;99884.19;3563354;40;20051;-61
2022/05/24 00:15:19;;;;;;;20.83;15.98;;;;;;;15.00;80.00;99893.28;3561896;40;20355;-62
2022/05/24 00:17:03;;;;;;;20.92;16.67;;;;;;;14.94;80.20;99888.44;3561521;40;20069;-62
2022/05/24 00:19:28;;;;;;;21.50;17.02;;;;;;;14.93;80.00;99893.00;3562836;40;20101;-63
2022/05/24 00:21:54;;;;;;;21.80;16.75;;;;;;;14.87;79.99;99893.59;3562332;40;20065;-63
2022/05/24 00:24:19;;;;;;;21.90;16.83;;;;;;;14.80;80.17;99903.28;3563388;40;20049;-61
2022/05/24 00:26:46;;;;;;;18.38;15.80;;;;;;;14.82;80.23;99906.72;3561339;40;20295;-62
2022/05/24 00:29:12;;;;;;;19.08;16.13;;;;;;;14.77;80.63;99903.59;3549817;40;20146;-61
2022/05/24 00:31:37;;;;;;;20.23;15.55;;;;;;;14.75;80.19;99905.59;3561921;40;20605;-62
2022/05/24 00:34:03;;;;;;;20.15;15.35;;;;;;;14.74;80.30;99901.16;3561704;40;20146;-62
2022/05/24 00:36:28;;;;;;;20.95;14.40;;;;;;;14.67;79.46;99891.94;3561901;40;20057;-61
2022/05/24 00:38:54;;;;;;;17.80;13.90;;;;;;;14.60;78.93;99891.66;3561960;40;20048;-61
2022/05/24 00:41:34;;;;;;;19.52;14.20;;;;;;;14.55;78.85;99886.66;3562238;40;20046;-61
2022/05/24 00:44:21;;;;;;;19.50;13.07;;;;;;;14.42;78.47;99872.53;3561911;40;20094;-61
2022/05/24 00:47:07;;;;;;;17.20;13.02;;;;;;;14.44;78.85;99884.09;3551358;40;20064;-61
2022/05/24 00:49:49;;;;;;;16.30;12.52;;;;;;;14.44;79.20;99888.66;3563359;40;20059;-62
2022/05/24 00:52:24;;;;;;;20.85;13.18;;;;;;;14.36;79.10;99892.03;3562993;40;20374;-61
2022/05/24 00:54:50;;;;;;;18.25;13.20;;;;;;;14.34;79.17;99896.75;3561594;40;20589;-61
2022/05/24 00:57:30;;;;;;;19.27;13.32;;;;;;;14.32;79.19;99887.91;3562080;40;20089;-61
2022/05/24 01:00:08;;;;;;;17.65;12.75;;;;;;;14.30;79.37;99889.91;3562331;40;20048;-61
2022/05/24 01:02:38;;;;;;;14.65;12.55;;;;;;;14.26;79.53;99888.50;3564289;40;20057;-61
2022/05/24 01:05:08;;;;;;;18.05;12.70;;;;;;;14.24;79.10;99882.34;3561779;40;20099;-61
2022/05/24 01:07:34;;;;;;;20.65;12.52;;;;;;;14.17;79.23;99888.31;3562805;40;20381;-61
2022/05/24 01:10:08;;;;;;;18.40;11.75;;;;;;;14.15;78.72;99890.34;3561148;40;20053;-61
2022/05/24 01:12:46;;;;;;;17.20;11.68;;;;;;;14.09;78.59;99882.78;3561246;40;20065;-61
2022/05/24 01:15:16;;;;;;;17.88;10.55;;;;;;;14.03;78.80;99882.50;3562048;40;20049;-61
2022/05/24 01:17:44;;;;;;;15.50;11.07;;;;;;;13.99;78.71;99881.94;3562494;40;20088;-61
2022/05/24 01:20:13;;;;;;;18.38;10.40;;;;;;;13.99;78.94;99884.63;3562897;40;20301;-61
2022/05/24 01:23:04;;;;;;;18.20;11.05;;;;;;;13.98;79.52;99882.06;3562252;40;20053;-61
2022/05/24 01:26:26;;;;;;;14.70;9.70;;;;;;;13.92;79.09;99886.16;3555068;40;20062;-61
2022/05/24 01:28:57;;;;;;;17.55;9.88;;;;;;;13.89;79.72;99903.53;3561605;40;20299;-61
2022/05/24 01:36:09;;;;;;;15.68;10.00;;;;;;;13.86;79.51;99893.00;3560242;40;20085;-61
2022/05/24 01:36:58;;;;;;;12.38;7.93;;;;;;;13.84;78.55;99896.81;3562808;40;20118;-61
2022/05/24 01:39:24;;;;;;;14.93;8.38;;;;;;;13.83;78.28;99897.81;3563650;40;20049;-61
2022/05/24 01:41:51;;;;;;;12.48;8.18;;;;;;;13.84;78.63;99897.69;3562727;40;20052;-61
2022/05/24 01:44:28;;;;;;;13.32;8.10;;;;;;;13.84;78.33;99907.63;3563403;40;20057;-61
2022/05/24 01:46:54;;;;;;;12.13;7.70;;;;;;;13.83;77.87;99890.56;3564641;40;20052;-61
2022/05/24 01:49:34;;;;;;;14.15;7.00;;;;;;;13.79;77.76;99901.78;3565351;40;20122;-61
2022/05/24 01:52:36;;;;;;;14.10;6.82;;;;;;;13.71;77.45;99905.19;3563659;40;20135;-61
2022/05/24 01:55:34;;;;;;;16.23;6.70;;;;;;;13.67;77.65;99901.06;3558408;40;20064;-61
2022/05/24 01:58:10;;;;;;;12.68;5.55;;;;;;;13.51;77.28;99874.56;3564052;40;20053;-61
2022/05/24 02:00:40;;;;;;;10.77;5.60;;;;;;;13.60;77.22;99887.22;3564382;40;20097;-61
2022/05/24 02:03:06;;;;;;;12.02;5.18;;;;;;;13.54;76.95;99878.81;3563535;40;21930;-61
2022/05/24 02:05:40;;;;;;;12.40;5.30;;;;;;;13.60;76.61;99887.22;3564451;40;20082;-62
2022/05/24 02:08:09;;;;;;;9.52;5.03;;;;;;;13.56;77.27;99880.38;3563163;40;20077;-62
2022/05/24 02:10:49;;;;;;;10.85;4.95;;;;;;;13.40;76.67;99861.16;3563125;40;20350;-63
2022/05/24 02:13:47;;;;;;;11.27;4.57;;;;;;;13.53;76.68;99899.56;3561018;40;20053;-62
2022/05/24 02:16:22;;;;;;;9.25;4.82;;;;;;;13.51;76.89;99900.69;3562765;40;20307;-63
2022/05/24 02:18:52;;;;;;;9.43;4.85;;;;;;;13.47;76.34;99897.41;3564904;40;20045;-63
2022/05/24 02:21:18;;;;;;;8.15;4.20;;;;;;;13.24;76.78;99865.22;3567602;40;20061;-62
2022/05/24 02:23:49;;;;;;;6.70;4.05;;;;;;;13.48;76.67;99909.94;3562550;40;20097;-63
2022/05/24 02:26:20;;;;;;;10.07;4.18;;;;;;;13.32;75.68;99885.25;3561683;40;20056;-61
2022/05/24 02:28:52;;;;;;;11.48;4.00;;;;;;;13.51;76.59;99898.00;3562599;40;20056;-64
2022/05/24 02:31:22;;;;;;;9.50;3.92;;;;;;;13.50;75.95;99907.94;3562504;40;20053;-62
2022/05/24 02:33:48;;;;;;;7.05;3.70;;;;;;;13.51;76.02;99904.28;3564312;40;20064;-62
2022/05/24 02:36:17;;;;;;;9.10;4.03;;;;;;;13.55;76.02;99905.69;3562014;40;20045;-62
2022/05/24 02:38:43;;;;;;;8.65;3.70;;;;;;;13.53;75.71;99910.38;3562891;40;20329;-62
2022/05/24 02:43:53;;;;;;;8.77;3.25;;;;;;;13.55;75.72;99910.25;3564089;40;20150;-62
2022/05/24 02:46:20;;;;;;;8.10;3.50;;;;;;;13.23;75.72;99849.13;3564217;40;20392;-62
2022/05/24 02:48:47;;;;;;;7.97;3.65;;;;;;;13.56;75.75;99902.00;3563522;40;20079;-62
2022/05/24 02:51:15;;;;;;;7.57;3.30;;;;;;;13.55;75.57;99897.59;3552463;40;20376;-62
2022/05/24 02:53:43;;;;;;;10.43;3.60;;;;;;;13.53;75.28;99910.38;3562663;40;20135;-62
2022/05/24 02:56:09;;;;;;;8.63;3.80;;;;;;;13.53;75.83;99918.47;3564569;40;20400;-62
2022/05/24 02:58:36;;;;;;;7.15;3.03;;;;;;;13.53;75.50;99907.66;3565024;40;20384;-62
2022/05/24 03:01:11;;;;;;;8.90;3.50;;;;;;;13.44;75.53;99882.34;3564360;40;20057;-62
2022/05/24 03:03:36;;;;;;;11.40;4.03;;;;;;;13.48;75.96;99882.94;3563349;40;20061;-62
2022/05/24 03:06:02;;;;;;;11.23;4.20;;;;;;;13.50;76.03;99890.88;3562865;40;20412;-62
2022/05/24 03:11:12;;;;;;;9.50;4.97;;;;;;;13.44;75.90;99900.38;3564919;40;20422;-62
2022/05/24 03:16:21;;;;;;;9.10;3.75;;;;;;;13.37;76.59;99899.22;3562590;40;20123;-62
2022/05/24 03:18:47;;;;;;;10.02;3.28;;;;;;;13.12;76.40;99858.16;3561105;40;20056;-62
2022/05/24 03:21:12;;;;;;;8.55;3.63;;;;;;;13.28;76.55;99891.94;3561767;40;20300;-62
2022/05/24 03:23:38;;;;;;;9.10;4.00;;;;;;;13.38;76.06;99909.03;3562879;40;20056;-63
2022/05/24 03:26:04;;;;;;;8.75;3.45;;;;;;;13.41;76.35;99906.06;3559792;40;20070;-62
2022/05/24 03:28:30;;;;;;;7.40;3.63;;;;;;;13.35;76.57;99906.59;3560373;40;20049;-62
2022/05/24 03:30:55;;;;;;;10.70;4.00;;;;;;;13.21;76.50;99880.78;3562610;40;20084;-62
2022/05/24 03:33:21;;;;;;;9.18;3.80;;;;;;;13.39;76.21;99922.41;3559717;40;20061;-62
2022/05/24 03:35:47;;;;;;;10.43;4.22;;;;;;;13.34;76.20;99921.94;3560222;40;20077;-62
2022/05/24 03:38:13;;;;;;;10.68;4.70;;;;;;;13.38;76.18;99917.13;3561185;40;20057;-62
2022/05/24 03:40:39;;;;;;;7.82;5.22;;;;;;;13.36;76.03;99909.16;3561753;40;20057;-61
2022/05/24 03:43:12;;;;;;;9.85;5.03;;;;;;;13.39;76.23;99906.19;3562463;40;20411;-61
2022/05/24 03:45:38;;;;;;;8.98;4.50;;;;;;;13.42;75.76;99916.72;3550336;40;20057;-62
2022/05/24 03:48:03;;;;;;;7.75;4.57;;;;;;;13.37;76.39;99905.47;3563440;40;20469;-61
2022/05/24 03:50:29;;;;;;;8.05;5.43;;;;;;;13.39;76.08;99910.75;3564448;40;20132;-62
2022/05/24 03:52:54;;;;;;;15.25;5.20;;;;;;;13.36;76.03;99913.72;3562779;40;20119;-62
2022/05/24 03:55:20;;;;;;;9.40;4.72;;;;;;;13.38;75.93;99945.00;3562956;40;20045;-61
2022/05/24 03:58:01;;;;;;;9.10;4.43;;;;;;;13.40;75.79;99944.84;3562231;40;20052;-61
2022/05/24 04:00:35;;;;;;;10.07;3.92;;;;;;;13.37;75.54;99940.56;3564808;40;20057;-62
2022/05/24 04:03:03;;;;;;;10.43;4.43;;;;;;;13.33;75.55;99951.78;3562786;40;20065;-61
2022/05/24 04:05:29;;;;;;;6.97;3.83;;;;;;;13.33;75.86;99970.69;3563858;40;20064;-61
2022/05/24 04:07:55;;;;;;;12.63;3.90;;;;;;;13.24;75.78;99956.97;3561857;40;20045;-62
2022/05/24 04:10:22;;;;;;;11.68;3.60;;;;;;;13.33;76.00;99971.53;3561847;40;20088;-62
2022/05/24 04:12:48;;;;;;;9.02;3.65;;;;;;;13.23;76.16;99960.63;3561362;40;20064;-62
2022/05/24 04:15:15;;;;;;;11.15;3.70;;;;;;;13.19;75.43;99956.50;3563846;40;20118;-62
2022/05/24 04:17:41;;;;;;;11.43;3.60;;;;;;;13.37;75.77;99978.34;3561785;40;20257;-62
2022/05/24 04:20:09;;;;;;;9.35;3.45;;;;;;;13.38;75.61;99973.81;3561123;40;20056;-62
2022/05/24 04:22:35;;;;;;;7.65;3.35;;;;;;;13.22;75.78;99928.38;3563591;40;20508;-61
2022/05/24 04:25:01;;;;;;;9.75;3.20;;;;;;;13.36;75.86;99929.91;3561068;40;20513;-62
2022/05/24 04:27:26;;;;;;;7.85;3.05;;;;;;;13.36;75.22;99935.31;3560127;40;20084;-62
2022/05/24 04:29:53;;;;;;;9.35;3.65;;;;;;;13.36;75.86;99938.00;3559013;40;20100;-62
2022/05/24 04:32:21;;;;;;;9.90;3.80;;;;;;;13.34;75.86;99953.47;3560956;40;20303;-62
2022/05/24 04:34:47;;;;;;;7.97;3.30;;;;;;;13.35;75.61;99979.47;3560142;40;20080;-62
2022/05/24 04:37:13;;;;;;;11.38;3.30;;;;;;;13.32;75.93;99990.53;3560795;40;20061;-62
2022/05/24 04:39:39;;;;;;;9.02;3.45;;;;;;;13.33;75.95;100000.38;3560220;40;20316;-62
2022/05/24 04:42:24;;;;;;;9.68;4.53;;;;;;;13.33;75.79;99993.13;3560496;40;20099;-62
2022/05/24 04:44:58;;;;;;;8.00;2.92;;;;;;;13.32;75.43;99979.75;3561866;40;20053;-62
2022/05/24 04:47:29;;;;;;;9.52;3.22;;;;;;;13.19;75.55;99964.59;3561691;40;20155;-62
2022/05/24 04:49:59;;;;;;;7.43;3.22;;;;;;;13.29;75.61;99991.69;3560318;40;20061;-62
2022/05/24 04:52:31;;;;;;;9.13;3.13;;;;;;;13.32;75.92;99990.53;3560085;40;20384;-62
2022/05/24 04:54:57;;;;;;;11.38;3.00;;;;;;;13.29;75.31;99993.50;3561948;40;20048;-63
2022/05/24 04:57:23;;;;;;;10.75;3.35;;;;;;;13.27;75.70;100003.59;3561391;40;20068;-61
2022/05/24 04:59:49;;;;;;;11.65;3.67;;;;;;;13.24;75.46;100013.66;3560684;40;20109;-61
2022/05/24 05:02:17;;;;;;;9.70;3.15;;;;;;;13.26;75.83;100013.53;3560036;40;20072;-61
2022/05/24 05:04:43;;;;;;;10.18;3.53;;;;;;;13.03;75.89;99985.78;3559768;40;20061;-61
2022/05/24 05:07:09;;;;;;;8.70;3.15;;;;;;;13.29;75.80;100028.59;3561775;40;20154;-61
2022/05/24 05:09:35;;;;;;;7.18;2.83;;;;;;;13.13;75.41;99993.94;3560360;40;20554;-61
2022/05/24 05:12:10;;;;;;;8.32;3.05;;;;;;;13.30;75.39;100039.28;3562536;40;20415;-60
2022/05/24 05:14:39;;;;;;;9.43;2.90;;;;;;;13.31;75.70;100048.22;3561106;40;20064;-61
2022/05/24 05:17:05;;;;;;;10.10;2.90;;;;;;;13.32;75.83;100049.91;3562301;40;20049;-61
2022/05/24 05:19:31;;;;;;;9.48;3.30;;;;;;;13.32;74.99;100042.72;3561644;40;20126;-63
2022/05/24 05:21:57;;;;;;;10.02;3.20;;;;;;;13.33;74.81;100040.84;3562384;40;20053;-63
2022/05/24 05:24:24;;;;;;;11.00;3.00;;;;;;;13.35;74.93;100033.47;3560429;40;20056;-61
2022/05/24 05:26:50;;;;;;;11.30;2.97;;;;;;;13.38;74.55;100027.78;3559857;40;20150;-62
2022/05/24 05:29:15;;;;;;;11.23;2.83;;;;;;;13.38;74.58;100044.00;3560964;40;20061;-62
2022/05/24 05:31:41;;;;;;;10.35;2.80;;;;;;;13.34;74.52;100047.94;3561122;40;20073;-62
2022/05/24 05:34:07;;;;;;;10.52;2.88;;;;;;;13.35;74.26;100033.47;3562449;40;20064;-63
2022/05/24 05:36:34;;;;;;;8.15;2.63;;;;;;;13.33;74.19;100030.06;3555682;40;20057;-62
2022/05/24 05:39:00;;;;;;;9.18;2.30;;;;;;;13.37;74.16;100024.25;3562304;40;20060;-63
2022/05/24 05:41:31;;;;;;;9.25;2.80;;;;;;;13.36;73.66;100032.50;3561758;40;20061;-63
2022/05/24 05:43:59;;;;;;;9.63;2.45;;;;;;;13.32;73.88;100031.03;3551519;40;20388;-62
2022/05/24 05:46:26;;;;;;;13.23;3.05;;;;;;;13.31;73.80;100026.63;3599606;23;20048;-61
2022/05/24 05:48:51;;;;;;;7.65;2.90;;;;;;;13.33;74.27;100040.84;3572713;40;20061;-62
2022/05/24 05:51:20;;;;;;;8.73;3.08;;;;;;;13.29;74.21;100039.38;3571866;40;20138;-61
2022/05/24 05:53:46;;;;;;;9.50;2.90;;;;;;;13.23;73.68;100047.00;3571417;40;20060;-62
2022/05/24 05:56:22;;;;;;;7.47;3.15;;;;;;;13.28;73.85;100061.97;3573080;40;20553;-62
2022/05/24 05:58:51;;;;;;;11.30;2.50;;;;;;;13.04;74.28;100030.69;3573320;40;22167;-62
2022/05/24 06:01:29;;;;;;;8.75;2.45;;;;;;;13.26;74.35;100072.91;3572383;40;20049;-61
2022/05/24 06:03:56;;;;;;;7.00;2.50;;;;;;;13.31;73.24;100086.00;3571456;40;20507;-62
2022/05/24 06:06:29;;;;;;;5.18;2.72;;;;;;;13.12;73.71;100055.16;3572083;40;20049;-62
2022/05/24 06:08:54;;;;;;;10.02;3.08;;;;;;;13.38;73.51;100089.88;3573438;40;20468;-62
2022/05/24 06:11:21;;;;;;;5.82;2.50;;;;;;;13.47;73.63;100091.81;3572801;40;20049;-62
2022/05/24 06:13:48;;;;;;;10.18;2.60;;;;;;;13.54;72.82;100084.91;3570158;40;20060;-62
2022/05/24 06:16:14;;;;;;;9.15;3.03;;;;;;;13.64;72.14;100083.13;3572916;40;20073;-62
2022/05/24 06:18:39;;;;;;;8.32;2.50;;;;;;;13.72;72.17;100089.69;3571683;40;20515;-62
2022/05/24 06:21:06;;;;;;;10.95;2.42;;;;;;;13.76;72.03;100093.84;3570911;40;20134;-62
2022/05/24 06:23:32;;;;;;;8.50;2.60;;;;;;;13.59;71.45;100047.53;3571925;40;20084;-62
2022/05/24 06:25:58;;;;;;;10.32;2.60;;;;;;;13.90;71.05;100086.25;3572813;40;20059;-62
2022/05/24 06:28:23;;;;;;;10.80;2.92;;;;;;;13.97;71.05;100078.44;3573180;40;20060;-62
2022/05/24 06:30:49;;;;;;;6.80;2.65;;;;;;;14.09;70.85;100093.59;3571147;40;20061;-62
2022/05/24 06:33:15;;;;;;;8.38;2.38;;;;;;;14.23;70.20;100088.81;3573741;40;20060;-62
2022/05/24 06:35:41;;;;;;;7.15;2.10;;;;;;;14.38;69.83;100084.72;3572114;40;20142;-62
2022/05/24 06:38:08;;;;;;;5.88;2.33;;;;;;;14.45;69.35;100091.28;3573573;40;20058;-63
2022/05/24 06:40:34;;;;;;;5.85;2.20;;;;;;;14.45;67.80;100077.78;3571453;40;20053;-64
2022/05/24 06:43:01;;;;;;;8.25;2.45;;;;;;;14.66;67.91;100093.94;3573341;40;20053;-62
2022/05/24 06:45:26;;;;;;;7.07;1.75;;;;;;;14.77;66.39;100103.78;3572612;40;20049;-62
2022/05/24 06:47:52;;;;;;;6.93;2.08;;;;;;;14.93;66.35;100109.50;3573926;40;20044;-62
2022/05/24 06:50:18;;;;;;;5.43;1.65;;;;;;;15.15;65.66;100111.09;3574445;40;20316;-62
2022/05/24 06:52:45;;;;;;;7.53;2.22;;;;;;;15.19;65.28;100115.25;3571927;40;20649;-62
2022/05/24 06:55:12;;;;;;;6.25;2.05;;;;;;;15.32;64.72;100125.81;3573234;40;20064;-63
2022/05/24 06:57:38;;;;;;;5.60;2.30;;;;;;;15.47;64.81;100127.06;3571028;40;20111;-62
2022/05/24 07:03:05;;;;;;;8.18;2.15;;;;;;;15.58;63.58;100125.22;3571930;40;20114;-63
2022/05/24 07:05:31;;;;;;;5.47;1.73;;;;;;;15.60;63.97;100134.03;3571860;40;20071;-62
2022/05/24 07:08:00;;;;;;;6.57;2.00;;;;;;;15.76;63.85;100134.31;3573071;40;20427;-62
2022/05/24 07:10:29;;;;;;;7.55;2.40;;;;;;;15.72;62.07;100127.50;3573356;40;20048;-62
2022/05/24 07:13:03;;;;;;;5.93;2.60;;;;;;;15.76;61.71;100145.16;3572779;40;20055;-63
2022/05/24 07:15:30;;;;;;;5.80;2.45;;;;;;;15.71;62.37;100133.91;3573212;40;20126;-61
2022/05/24 07:17:56;;;;;;;4.45;2.20;;;;;;;15.88;63.50;100133.16;3575039;40;20072;-63
2022/05/24 07:20:23;;;;;;;8.95;1.67;;;;;;;15.97;60.52;100148.56;3575509;40;20281;-64
2022/05/24 07:22:49;;;;;;;7.38;2.17;;;;;;;15.87;61.17;100147.72;3573884;40;20060;-64
2022/05/24 07:25:18;;;;;;;7.32;1.90;;;;;;;15.87;61.76;100155.00;3575199;40;20052;-64
2022/05/24 07:27:44;;;;;;;6.32;1.73;;;;;;;15.79;61.39;100150.28;3580728;40;20556;-64
2022/05/24 07:30:11;;;;;;;4.03;1.70;;;;;;;15.60;61.89;100139.44;3575557;40;20044;-64
2022/05/24 07:32:37;;;;;;;3.80;1.52;;;;;;;15.64;62.45;100151.72;3573172;40;20052;-64
2022/05/24 07:35:05;;;;;;;5.43;1.90;;;;;;;15.67;62.98;100162.31;3571081;40;20052;-67
2022/05/24 07:37:31;;;;;;;7.43;1.60;;;;;;;15.78;62.99;100168.41;3570316;40;20052;-64
2022/05/24 07:48:12;;;;;;;5.22;1.63;;;;;;;15.93;60.17;100171.53;3573197;40;20168;-64
2022/05/24 07:50:39;;;;;;;2.30;1.38;;;;;;;15.81;59.05;100148.31;3570426;40;20068;-65
2022/05/24 07:53:05;;;;;;;4.72;2.20;;;;;;;15.86;59.46;100158.69;3572102;40;20378;-64
2022/05/24 07:55:31;;;;;;;5.00;2.30;;;;;;;16.01;59.88;100171.66;3571970;40;20060;-64
2022/05/24 07:57:58;;;;;;;3.25;1.73;;;;;;;15.93;59.39;100162.56;3572060;40;20056;-64
2022/05/24 08:00:24;;;;;;;6.22;2.28;;;;;;;15.97;59.74;100175.66;3570871;40;20307;-65
2022/05/24 08:02:51;;;;;;;4.32;1.80;;;;;;;15.79;60.06;100150.28;3571486;40;20064;-64
2022/05/24 08:05:18;;;;;;;4.45;1.85;;;;;;;15.97;59.13;100178.38;3572547;40;20048;-64
2022/05/24 08:07:49;;;;;;;4.47;1.90;;;;;;;16.12;58.90;100191.47;3570330;40;20075;-64
2022/05/24 08:10:15;;;;;;;6.13;1.77;;;;;;;16.29;59.10;100190.72;3572043;40;20041;-64
2022/05/24 08:12:41;;;;;;;3.65;1.85;;;;;;;16.46;58.29;100198.09;3571398;40;20068;-64
2022/05/24 08:15:10;;;;;;;4.45;2.00;;;;;;;16.46;57.50;100197.25;3571542;40;20055;-65
2022/05/24 08:17:36;;;;;;;4.43;2.10;;;;;;;16.51;57.47;100194.06;3570262;40;20052;-65
2022/05/24 08:20:03;;;;;;;3.38;2.17;;;;;;;16.79;55.85;100201.25;3575862;40;20057;-64
2022/05/24 08:22:29;;;;;;;5.20;1.95;;;;;;;17.12;57.69;100198.94;3574655;40;20067;-63
2022/05/24 08:24:54;;;;;;;5.82;2.10;;;;;;;17.16;55.82;100206.63;3576045;40;20376;-64
2022/05/24 08:27:20;;;;;;;4.68;2.15;;;;;;;16.94;55.10;100202.47;3573961;40;20059;-64
2022/05/24 08:29:45;;;;;;;4.70;1.92;;;;;;;16.84;55.30;100215.25;3571937;40;20529;-64
2022/05/24 08:32:12;;;;;;;3.60;1.65;;;;;;;16.64;56.06;100216.28;3571870;40;20834;-64
2022/05/24 08:34:38;;;;;;;5.22;2.00;;;;;;;16.61;57.26;100219.31;3569790;40;20052;-64
2022/05/24 08:37:06;;;;;;;5.72;2.00;;;;;;;16.48;56.89;100223.19;3570267;40;20087;-64
2022/05/24 08:39:32;;;;;;;7.55;2.00;;;;;;;16.36;56.63;100232.50;3570086;40;20060;-64
2022/05/24 08:42:21;;;;;;;7.93;2.13;;;;;;;16.21;57.66;100231.28;3571074;40;20064;-63
2022/05/24 08:50:51;;;;;;;3.70;1.75;;;;;;;16.10;58.63;100245.00;3571172;40;20087;-64
2022/05/24 08:53:33;;;;;;;1.88;1.52;;;;;;;16.13;59.50;100244.69;3570452;40;20056;-64
2022/05/24 08:56:02;;;;;;;3.65;1.75;;;;;;;16.15;59.43;100253.56;3571457;40;20133;-63
2022/05/24 08:58:39;;;;;;;3.28;1.30;;;;;;;16.05;57.86;100258.13;3570553;40;20059;-65
2022/05/24 09:01:23;;;;;;;1.30;1.20;;;;;;;16.05;57.65;100264.41;3571500;40;20063;-64
2022/05/24 09:03:49;;;;;;;;;;;;;;;16.02;57.81;100268.25;3570258;40;20068;-65
2022/05/24 09:06:38;;;;;;;3.08;1.25;;;;;;;16.00;58.44;100264.84;3571165;40;19952;-65
2022/05/24 09:09:47;;;;;;;2.70;1.25;;;;;;;15.97;58.77;100272.41;3572038;40;20131;-64
2022/05/24 09:12:57;;;;;;;2.90;1.50;;;;;;;16.01;58.79;100277.38;3571941;40;20041;-64
2022/05/24 09:16:09;;;;;;;2.33;1.55;;;;;;;16.16;57.24;100288.66;3569606;40;20044;-66
2022/05/24 09:19:04;;;;;;;3.72;1.90;;;;;;;16.45;56.38;100283.19;3568840;40;20041;-68
2022/05/24 09:21:33;;;;;;;2.55;2.28;;;;;;;16.57;55.79;100289.31;3569842;40;20056;-64
2022/05/24 09:24:24;;;;;;;2.20;2.03;;;;;;;16.60;55.35;100296.28;3572859;40;20076;-64
2022/05/24 09:27:10;;;;;;;3.22;2.00;;;;;;;16.48;55.66;100304.59;3574040;40;20071;-64
2022/05/24 09:30:07;;;;;;;3.92;1.92;;;;;;;16.33;55.96;100294.34;3570689;40;20060;-65
2022/05/24 09:32:44;;;;;;;3.38;1.67;;;;;;;16.33;56.40;100306.03;3570014;40;20051;-65
2022/05/24 09:35:09;;;;;;;3.53;1.80;;;;;;;16.32;56.10;100298.91;3570549;40;20093;-64
2022/05/24 09:37:37;;;;;;;3.85;2.25;;;;;;;16.34;56.14;100312.34;3570830;40;20063;-64
2022/05/24 09:40:19;;;;;;;4.63;2.40;;;;;;;16.43;55.56;100311.47;3571051;40;20402;-64
2022/05/24 09:42:45;;;;;;;3.55;3.03;;;;;;;16.61;55.56;100317.00;3571493;40;20240;-64
2022/05/24 09:45:36;;;;;;;3.65;2.28;;;;;;;16.84;55.57;100318.41;3573801;40;20100;-64
2022/05/24 09:48:02;;;;;;;3.92;2.70;;;;;;;16.98;53.50;100313.50;3572301;40;20123;-64
2022/05/24 09:50:39;;;;;;;3.00;2.60;;;;;;;17.13;54.00;100303.88;3571677;40;20175;-64
2022/05/24 09:53:19;;;;;;;4.05;2.55;;;;;;;17.38;53.85;100324.91;3571697;40;20065;-64
2022/05/24 09:56:04;;;;;;;2.50;2.30;;;;;;;17.89;52.19;100327.16;3570434;40;20338;-64
2022/05/24 09:58:52;;;;;;;4.25;2.53;;;;;;;18.31;52.75;100309.22;3570880;40;20379;-64
2022/05/24 10:01:40;;;;;;;3.65;3.22;;;;;;;18.64;49.71;100319.47;3574384;40;20633;-64
2022/05/24 10:04:27;;;;;;;4.63;3.25;;;;;;;19.14;50.16;100313.34;3577606;40;20069;-64
2022/05/24 10:07:07;;;;;;;3.72;3.35;;;;;;;19.24;48.11;100325.81;3569507;40;20072;-65
2022/05/24 10:10:00;;;;;;;2.80;2.60;;;;;;;19.50;47.25;100333.06;3570960;40;20059;-66
2022/05/24 10:13:18;;;;;;;5.13;2.40;;;;;;;19.33;47.29;100328.59;3566966;40;20056;-64
2022/05/24 10:16:05;;;;;;;3.03;2.67;;;;;;;19.25;46.50;100327.56;3571688;40;20093;-64
2022/05/24 10:19:02;;;;;;;3.15;2.55;;;;;;;19.22;45.72;100327.03;3572453;40;20085;-64
2022/05/24 10:21:49;;;;;;;2.55;2.35;;;;;;;19.34;46.47;100336.59;3571379;40;20079;-68
2022/05/24 10:24:52;;;;;;;3.35;2.53;;;;;;;19.24;46.15;100325.81;3573647;40;20059;-64
2022/05/24 10:27:42;;;;;;;3.60;2.60;;;;;;;19.03;46.16;100333.56;3571870;40;20049;-64
2022/05/24 10:30:11;;;;;;;3.63;2.85;;;;;;;18.99;45.77;100343.91;3577928;40;20399;-64
2022/05/24 10:39:22;;;;;;;3.55;2.65;;;;;;;19.56;45.13;100345.19;3570668;40;20118;-64
2022/05/24 10:42:32;;;;;;;3.25;2.80;;;;;;;19.50;45.08;100357.63;3570733;40;20127;-65
2022/05/24 10:45:23;;;;;;;6.43;3.10;;;;;;;19.20;45.17;100354.41;3570884;40;20325;-65
2022/05/24 10:48:22;;;;;;;3.35;3.15;;;;;;;18.92;45.47;100363.78;3568038;40;20304;-65
2022/05/24 10:51:04;;;;;;;2.63;2.53;;;;;;;18.75;46.20;100363.69;3568454;40;20816;-65
2022/05/24 10:54:01;;;;;;;3.17;2.97;;;;;;;19.20;45.85;100354.41;3570807;40;20055;-65
2022/05/24 10:56:44;;;;;;;4.20;2.83;;;;;;;19.83;45.11;100346.88;3571531;40;20102;-63
2022/05/24 10:59:29;;;;;;;3.60;3.40;;;;;;;19.87;44.48;100345.50;3571421;40;20061;-64
2022/05/24 11:02:22;;;;;;;4.00;3.70;;;;;;;19.70;45.20;100337.28;3570653;40;20064;-65
2022/05/24 11:05:29;;;;;;;3.85;3.55;;;;;;;19.73;44.89;100366.09;3572463;40;20077;-66
2022/05/24 11:08:42;;;;;;;3.65;3.28;;;;;;;20.18;44.75;100354.78;3571952;40;20150;-66
2022/05/24 11:11:25;;;;;;;2.83;2.63;;;;;;;20.79;44.84;100349.84;3571685;40;20061;-65
2022/05/24 11:14:33;;;;;;;2.55;2.35;;;;;;;21.32;44.78;100351.09;3572572;40;20059;-64
2022/05/24 11:17:00;;;;;;;2.55;2.10;;;;;;;21.76;42.87;100338.78;3571193;40;20065;-65
2022/05/24 11:19:35;;;;;;;2.33;2.13;;;;;;;22.06;42.10;100338.94;3572253;40;20360;-65
2022/05/24 11:22:09;;;;;;;2.65;2.45;;;;;;;22.24;41.17;100347.75;3572238;40;20077;-64
2022/05/24 11:24:53;;;;;;;3.50;3.20;;;;;;;22.13;40.41;100331.69;3570445;40;20052;-64
2022/05/24 11:27:37;;;;;;;3.00;2.80;;;;;;;22.45;40.48;100358.88;3571822;40;20435;-64
2022/05/24 11:30:34;;;;;;;3.70;2.47;;;;;;;22.42;38.32;100353.78;3573442;40;20107;-64
2022/05/24 11:33:03;;;;;;;2.70;2.60;;;;;;;22.41;38.28;100360.25;3569502;40;20060;-65
2022/05/24 11:35:39;;;;;;;2.38;2.17;;;;;;;21.84;39.73;100343.34;3571923;40;20045;-66
2022/05/24 11:38:27;;;;;;;2.30;2.10;;;;;;;21.35;40.49;100366.31;3571857;40;20283;-66
2022/05/24 11:41:09;;;;;;;3.22;2.78;;;;;;;20.97;41.88;100379.72;3570196;40;20084;-66
2022/05/24 11:43:43;;;;;;;2.80;2.50;;;;;;;21.22;41.05;100376.94;3569687;40;20370;-63
2022/05/24 11:46:33;;;;;;;2.55;2.35;;;;;;;21.68;41.01;100379.84;3569723;40;20092;-63
2022/05/24 11:49:04;;;;;;;2.50;2.30;;;;;;;21.98;40.56;100376.28;3569497;40;20064;-64
2022/05/24 11:51:51;;;;;;;2.50;2.30;;;;;;;22.30;39.52;100382.63;3571704;40;20060;-64
2022/05/24 11:54:18;;;;;;;2.90;2.60;;;;;;;21.99;39.95;100390.81;3568382;40;20298;-64
2022/05/24 11:57:01;;;;;;;3.00;2.78;;;;;;;21.72;40.62;100401.19;3569379;40;20072;-64
2022/05/24 11:59:47;;;;;;;;;;;;;;;21.53;39.77;100401.63;3571375;40;20053;-64
2022/05/24 12:02:22;;;;;;;3.45;2.30;;;;;;;21.05;40.51;100392.50;3570103;40;19932;-65
2022/05/24 12:07:55;;;;;;;4.72;2.78;;;;;;;20.17;43.02;100399.47;3570527;40;20503;-64
2022/05/24 12:10:21;;;;;;;2.83;2.50;;;;;;;19.85;42.31;100413.00;3571525;40;20135;-65
2022/05/24 12:13:02;;;;;;;2.20;2.00;;;;;;;19.44;43.70;100437.31;3571805;40;20390;-64
2022/05/24 12:15:30;;;;;;;2.80;1.98;;;;;;;18.86;49.92;100448.84;3569460;40;20121;-64
2022/05/24 12:17:59;;;;;;;4.00;2.92;;;;;;;17.91;55.97;100461.13;3572634;40;20138;-65
2022/05/24 12:20:33;;;;;;;7.80;3.15;;;;;;;17.23;58.55;100467.66;3571890;40;20407;-65
2022/05/24 12:23:13;;;;;;;3.88;2.50;;;;;;;16.70;61.44;100468.09;3570867;40;20133;-64
2022/05/24 12:26:03;;;;;;;3.72;2.45;;;;;;;16.29;61.01;100461.94;3567400;40;20063;-65
2022/05/24 12:28:34;;;;;;;2.92;1.90;;;;;;;16.10;62.64;100461.91;3571500;40;20521;-63
2022/05/24 12:31:14;;;;;;;2.67;2.25;;;;;;;16.07;64.65;100456.75;3570248;40;20287;-63
2022/05/24 12:33:49;;;;;;;5.00;2.05;;;;;;;16.00;63.08;100457.31;3571003;40;20728;-64